Time;durP1;ratioP1;P1;durP2;ratioP2;P2;SDS_P1;SDS_P2;PMS_P1;PMS_P2;Temp;Humidity;BMP_temperature;BMP_pressure;BME280_temperature;BME280_humidity;BME280_pressure;Samples;Min_cycle;Max_cycle;Signal;HPM_P1;HPM_P2
2021/10/24 02:45:07;;;;;;;15.45;6.40;;;4.40;91.20;;;;;;5769237;24;20794;31
2021/10/24 02:47:34;;;;;;;12.57;5.90;;;4.30;91.30;;;;;;4771636;30;20071;-81
2021/10/24 02:50:00;;;;;;;13.82;6.18;;;4.30;91.00;;;;;;4779448;30;20055;-81
2021/10/24 02:52:26;;;;;;;18.38;7.25;;;4.30;90.90;;;;;;4779111;30;20074;-81
2021/10/24 02:54:56;;;;;;;14.50;5.60;;;4.20;90.90;;;;;;4779246;30;20039;-81
2021/10/24 02:57:22;;;;;;;14.05;6.20;;;4.30;90.90;;;;;;4772903;30;20039;-82
2021/10/24 02:59:47;;;;;;;15.90;6.00;;;4.20;90.80;;;;;;4764185;30;20054;-81
2021/10/24 03:02:13;;;;;;;19.25;7.28;;;4.20;90.80;;;;;;4778963;30;20027;-81
2021/10/24 03:04:39;;;;;;;12.20;6.57;;;4.20;90.70;;;;;;4779067;30;20062;-81
2021/10/24 03:07:05;;;;;;;18.08;6.68;;;4.10;90.80;;;;;;4778874;30;20080;-81
2021/10/24 03:09:30;;;;;;;18.75;7.03;;;4.20;90.70;;;;;;4778937;30;20227;-82
2021/10/24 03:11:56;;;;;;;12.60;6.30;;;4.10;90.90;;;;;;4774925;30;20398;-81
2021/10/24 03:14:22;;;;;;;13.55;6.55;;;4.10;90.90;;;;;;4761102;30;20323;-82
2021/10/24 03:16:49;;;;;;;14.00;6.82;;;4.00;90.80;;;;;;4764176;30;20030;-81
2021/10/24 03:19:15;;;;;;;13.98;6.88;;;4.00;90.80;;;;;;4778848;30;20327;-82
2021/10/24 03:21:48;;;;;;;14.82;6.65;;;4.00;91.10;;;;;;4768590;30;20309;-82
2021/10/24 03:24:16;;;;;;;16.20;7.43;;;3.90;90.80;;;;;;4766964;30;20050;-81
2021/10/24 03:26:42;;;;;;;20.38;7.60;;;4.00;90.90;;;;;;4773031;30;20028;-81
2021/10/24 03:29:11;;;;;;;15.82;6.35;;;3.90;90.90;;;;;;4773124;30;20032;-82
2021/10/24 03:31:37;;;;;;;17.55;6.97;;;3.90;90.70;;;;;;4765157;30;20085;-82
2021/10/24 03:34:03;;;;;;;12.30;6.72;;;3.90;90.70;;;;;;4763870;30;20055;-82
2021/10/24 03:36:29;;;;;;;13.83;6.00;;;3.90;90.70;;;;;;4778484;30;20032;-82
2021/10/24 03:38:55;;;;;;;13.45;6.32;;;3.80;90.70;;;;;;4763795;30;20043;-82
2021/10/24 03:41:20;;;;;;;11.70;5.93;;;3.80;90.70;;;;;;4763786;30;20032;-82
2021/10/24 03:43:46;;;;;;;14.40;7.30;;;3.80;90.70;;;;;;4763822;30;20036;-82
2021/10/24 03:46:15;;;;;;;15.00;6.28;;;3.80;90.70;;;;;;4774587;30;20052;-81
2021/10/24 03:48:40;;;;;;;17.42;6.30;;;3.70;90.70;;;;;;4760915;30;20037;-82
2021/10/24 03:51:06;;;;;;;12.85;6.57;;;3.70;90.70;;;;;;4772787;30;20111;-82
2021/10/24 03:53:32;;;;;;;14.02;6.70;;;3.70;90.80;;;;;;4763754;30;20076;-81
2021/10/24 03:55:59;;;;;;;17.13;7.50;;;3.70;91.00;;;;;;4778544;30;20027;-82
2021/10/24 03:58:24;;;;;;;14.93;7.63;;;3.70;91.30;;;;;;4769339;30;20044;-82
2021/10/24 04:00:52;;;;;;;13.07;7.03;;;3.70;91.30;;;;;;4763440;30;20023;-82
2021/10/24 04:03:24;;;;;;;13.60;7.07;;;3.70;91.40;;;;;;4768772;30;20067;-82
2021/10/24 04:05:50;;;;;;;13.43;7.13;;;3.60;91.40;;;;;;4760643;30;20220;-82
2021/10/24 04:08:17;;;;;;;20.88;7.32;;;3.60;91.50;;;;;;4760640;30;20107;-82
2021/10/24 04:10:44;;;;;;;20.80;7.97;;;3.60;92.30;;;;;;4760667;30;20028;-82
2021/10/24 04:13:10;;;;;;;16.08;6.88;;;3.70;92.50;;;;;;4766304;30;20036;-81
2021/10/24 04:15:38;;;;;;;19.98;7.07;;;3.70;92.80;;;;;;4763338;30;20048;-81
2021/10/24 04:18:19;;;;;;;15.38;7.68;;;3.80;92.70;;;;;;4772101;30;20068;-81
2021/10/24 04:20:45;;;;;;;14.52;7.00;;;3.80;92.40;;;;;;4767595;30;20024;-81
2021/10/24 04:23:11;;;;;;;15.35;7.13;;;3.80;92.20;;;;;;4760483;30;20066;-80
2021/10/24 04:25:37;;;;;;;17.08;7.68;;;3.80;92.10;;;;;;4772060;30;20197;-80
2021/10/24 04:28:04;;;;;;;17.95;6.53;;;3.70;92.00;;;;;;4763212;30;20036;-81
2021/10/24 04:30:30;;;;;;;17.77;7.57;;;3.70;92.00;;;;;;4763685;30;20039;-81
2021/10/24 04:32:57;;;;;;;13.90;6.80;;;3.60;91.90;;;;;;4773811;30;20324;-81
2021/10/24 04:35:23;;;;;;;20.33;8.00;;;3.60;92.10;;;;;;4782588;30;20031;-81
2021/10/24 04:37:48;;;;;;;17.88;6.45;;;3.60;91.90;;;;;;4777660;30;20071;-81
2021/10/24 04:40:16;;;;;;;9.93;5.93;;;3.60;92.10;;;;;;4767422;30;20023;-81
2021/10/24 04:42:49;;;;;;;17.88;6.53;;;3.60;92.00;;;;;;4770861;30;20060;-81
2021/10/24 04:45:15;;;;;;;17.83;7.00;;;3.60;92.10;;;;;;4779610;30;20027;-81
2021/10/24 04:47:41;;;;;;;18.23;7.47;;;3.60;92.60;;;;;;4764640;30;20040;-81
2021/10/24 04:50:08;;;;;;;21.63;7.78;;;3.60;92.80;;;;;;4778302;30;20112;-81
2021/10/24 04:52:37;;;;;;;15.90;7.35;;;3.70;93.00;;;;;;4781258;30;20273;-81
2021/10/24 04:55:05;;;;;;;21.52;7.45;;;3.70;92.80;;;;;;4771028;30;20115;-81
2021/10/24 04:57:31;;;;;;;12.00;6.60;;;3.70;92.70;;;;;;4767435;30;20115;-81
2021/10/24 04:59:59;;;;;;;17.90;7.55;;;3.70;92.60;;;;;;4776794;30;20090;-81
2021/10/24 05:02:25;;;;;;;15.73;6.55;;;3.70;92.50;;;;;;4769127;30;20040;-81
2021/10/24 05:04:51;;;;;;;16.33;6.72;;;3.60;92.30;;;;;;4775153;30;20035;-81
2021/10/24 05:07:16;;;;;;;16.17;6.47;;;3.60;92.30;;;;;;4780045;30;20032;-81
2021/10/24 05:09:42;;;;;;;18.33;6.63;;;3.60;92.30;;;;;;4771373;30;20032;-81
2021/10/24 05:12:08;;;;;;;20.75;6.68;;;3.60;92.30;;;;;;4766566;30;20065;-81
2021/10/24 05:14:35;;;;;;;;;;;3.60;92.20;;;;;;4775328;30;20032;-81
2021/10/24 05:17:01;;;;;;;12.93;6.67;;;3.50;92.20;;;;;;4780653;30;19914;-81
2021/10/24 05:19:26;;;;;;;15.77;6.32;;;3.50;92.30;;;;;;4771424;30;20056;-81
2021/10/24 05:21:52;;;;;;;16.05;6.60;;;3.40;92.40;;;;;;4765929;30;20027;-81
2021/10/24 05:24:18;;;;;;;14.95;7.28;;;3.40;92.60;;;;;;4774558;30;20035;-81
2021/10/24 05:26:44;;;;;;;17.27;6.90;;;3.40;92.50;;;;;;4772021;30;20020;-81
2021/10/24 05:29:10;;;;;;;14.45;7.28;;;3.40;92.40;;;;;;4763977;30;20024;-81
2021/10/24 05:31:36;;;;;;;23.55;7.22;;;3.40;92.50;;;;;;4774762;30;20057;-81
2021/10/24 05:34:08;;;;;;;18.65;6.75;;;3.40;92.60;;;;;;4777820;30;20223;-81
2021/10/24 05:36:46;;;;;;;22.58;8.20;;;3.40;92.70;;;;;;4765955;30;20028;-81
2021/10/24 05:39:11;;;;;;;18.85;8.20;;;3.40;92.60;;;;;;4769230;30;20090;-81
2021/10/24 05:41:38;;;;;;;18.85;8.45;;;3.40;92.70;;;;;;4764817;30;20028;-82
2021/10/24 05:44:04;;;;;;;23.60;9.43;;;3.40;92.90;;;;;;4775769;30;20073;-81
2021/10/24 05:46:31;;;;;;;19.60;8.23;;;3.40;93.10;;;;;;4767885;30;20044;-81
2021/10/24 05:49:03;;;;;;;21.58;7.05;;;3.30;93.20;;;;;;4769651;30;20024;-81
2021/10/24 05:51:29;;;;;;;17.38;8.55;;;3.40;93.10;;;;;;4769395;30;20035;-81
2021/10/24 05:53:55;;;;;;;18.10;8.95;;;3.40;93.10;;;;;;4771178;30;20228;-82
2021/10/24 05:56:27;;;;;;;17.17;7.75;;;3.40;93.00;;;;;;4766758;30;20024;-81
2021/10/24 05:58:53;;;;;;;18.70;7.43;;;3.40;93.00;;;;;;4769311;30;20272;-82
2021/10/24 06:01:32;;;;;;;11.07;7.10;;;3.40;92.90;;;;;;4764931;30;20032;-81
2021/10/24 06:04:27;;;;;;;19.45;8.20;;;3.40;92.70;;;;;;4772110;30;20032;-81
2021/10/24 06:07:11;;;;;;;14.02;6.72;;;3.50;92.60;;;;;;4764559;30;20039;-81
2021/10/24 06:09:42;;;;;;;19.58;9.07;;;3.50;92.60;;;;;;4767385;30;20231;-81
2021/10/24 06:12:16;;;;;;;24.08;8.95;;;3.50;92.50;;;;;;4769371;30;20032;-81
2021/10/24 06:14:42;;;;;;;14.77;7.82;;;3.60;92.60;;;;;;4754517;30;20039;-81
2021/10/24 06:17:08;;;;;;;21.60;9.82;;;3.60;92.70;;;;;;4767148;30;20737;-81
2021/10/24 06:19:36;;;;;;;20.73;9.37;;;3.70;92.70;;;;;;4767540;30;20098;-81
2021/10/24 06:22:03;;;;;;;17.05;8.35;;;3.80;92.60;;;;;;4769327;30;20028;-81
2021/10/24 06:24:29;;;;;;;23.02;8.10;;;3.80;92.50;;;;;;4774727;30;20032;-81
2021/10/24 06:26:56;;;;;;;21.63;9.10;;;3.90;92.30;;;;;;4769038;30;20027;-81
2021/10/24 06:29:22;;;;;;;17.07;8.00;;;4.00;92.30;;;;;;4759845;30;20067;-81
2021/10/24 06:31:47;;;;;;;21.48;8.27;;;4.10;92.40;;;;;;4767928;30;20020;-81
2021/10/24 06:34:32;;;;;;;16.73;8.45;;;4.10;92.50;;;;;;4767826;30;20267;-81
2021/10/24 06:37:19;;;;;;;;;;;4.20;92.50;;;;;;4766745;30;20028;-81
2021/10/24 06:39:47;;;;;;;13.93;7.25;;;4.30;92.70;;;;;;4784525;29;19922;-81
2021/10/24 06:42:13;;;;;;;16.48;7.72;;;4.40;92.70;;;;;;4767504;30;20165;-81
2021/10/24 06:44:58;;;;;;;17.57;8.27;;;4.50;92.80;;;;;;4770232;30;20091;-81
2021/10/24 06:47:46;;;;;;;18.33;8.75;;;4.60;92.80;;;;;;4768976;30;20050;-81
2021/10/24 06:50:31;;;;;;;20.02;8.55;;;4.70;92.50;;;;;;4764517;30;20141;-81
2021/10/24 06:52:57;;;;;;;15.25;7.93;;;4.80;92.40;;;;;;4765373;30;20236;-81
2021/10/24 06:55:32;;;;;;;16.67;7.30;;;4.90;92.30;;;;;;4765948;30;20374;-81
2021/10/24 06:58:30;;;;;;;18.30;6.80;;;4.90;92.20;;;;;;4751319;30;20251;-81
2021/10/24 07:01:14;;;;;;;18.85;6.97;;;5.10;91.90;;;;;;4747100;30;20050;-81
2021/10/24 07:04:01;;;;;;;23.95;8.55;;;5.10;91.60;;;;;;4743025;30;20106;-81
2021/10/24 07:06:46;;;;;;;17.02;6.88;;;5.20;91.40;;;;;;4738797;30;20043;-81
2021/10/24 07:09:20;;;;;;;18.05;6.57;;;5.30;91.30;;;;;;4735641;30;20029;-81
2021/10/24 07:11:46;;;;;;;14.82;7.28;;;5.40;91.20;;;;;;4740597;30;20028;-81
2021/10/24 07:14:12;;;;;;;22.90;7.05;;;5.50;91.00;;;;;;4734959;30;20044;-81
2021/10/24 07:16:37;;;;;;;18.55;7.07;;;5.60;90.70;;;;;;4736498;30;20057;-81
2021/10/24 07:19:03;;;;;;;16.80;5.93;;;5.70;90.50;;;;;;4740878;30;20040;-81
2021/10/24 07:21:30;;;;;;;15.80;6.73;;;5.80;90.30;;;;;;4752303;30;20103;-81
2021/10/24 07:24:15;;;;;;;14.38;6.03;;;5.90;89.90;;;;;;4727216;30;20586;-81
2021/10/24 07:26:42;;;;;;;19.35;6.38;;;6.00;89.70;;;;;;4725043;30;20045;-81
2021/10/24 07:29:12;;;;;;;15.15;7.35;;;6.10;89.60;;;;;;4723702;30;20036;-80
2021/10/24 07:31:40;;;;;;;12.88;6.03;;;6.20;89.20;;;;;;4725027;30;20059;-81
2021/10/24 07:34:29;;;;;;;25.55;7.03;;;6.30;89.00;;;;;;4684171;30;20383;-81
2021/10/24 07:36:55;;;;;;;21.08;7.75;;;6.40;88.20;;;;;;4702679;30;20041;-81
2021/10/24 07:39:21;;;;;;;22.98;7.68;;;6.50;88.40;;;;;;4694337;30;20076;-81
2021/10/24 07:41:48;;;;;;;17.42;6.75;;;6.60;87.90;;;;;;4700646;30;20038;-81
2021/10/24 07:44:15;;;;;;;16.33;7.25;;;6.70;87.80;;;;;;4679700;30;20219;-81
2021/10/24 07:46:42;;;;;;;19.52;6.60;;;6.70;87.50;;;;;;4704394;30;20384;-81
2021/10/24 07:49:08;;;;;;;19.77;6.43;;;6.80;87.20;;;;;;4697551;30;20071;-81
2021/10/24 07:51:35;;;;;;;20.27;6.43;;;6.90;86.90;;;;;;4696974;30;20030;-81
2021/10/24 07:54:03;;;;;;;19.15;6.30;;;6.90;86.00;;;;;;4695540;30;20080;-81
2021/10/24 07:56:33;;;;;;;15.25;5.47;;;7.00;85.00;;;;;;4707662;30;20229;-81
2021/10/24 07:59:17;;;;;;;19.40;6.13;;;7.10;84.60;;;;;;4715973;30;20143;-79
2021/10/24 08:01:44;;;;;;;;;;;7.20;84.00;;;;;;4712298;30;20063;-81
2021/10/24 08:04:11;;;;;;;21.95;6.63;;;7.30;83.50;;;;;;4698174;30;19958;-79
2021/10/24 08:06:38;;;;;;;;;;;7.40;83.80;;;;;;4727286;30;20095;-80
2021/10/24 08:09:07;;;;;;;23.92;6.55;;;7.60;83.40;;;;;;4718738;30;19907;-81
2021/10/24 08:11:37;;;;;;;19.25;7.13;;;7.60;83.00;;;;;;4746473;30;20320;-80
2021/10/24 08:14:06;;;;;;;21.83;6.53;;;7.70;83.00;;;;;;4768688;30;20354;-80
2021/10/24 08:16:36;;;;;;;21.08;7.03;;;7.80;83.10;;;;;;4772930;30;20235;-80
2021/10/24 08:19:04;;;;;;;20.33;7.05;;;8.00;82.70;;;;;;4758341;30;20090;-79
2021/10/24 08:21:37;;;;;;;22.38;7.60;;;8.10;82.30;;;;;;4776539;30;20161;-79
2021/10/24 08:24:05;;;;;;;20.55;7.20;;;8.20;82.30;;;;;;4776225;30;20032;-80
2021/10/24 08:26:35;;;;;;;25.55;6.93;;;8.50;80.70;;;;;;4779331;30;20035;-80
2021/10/24 08:29:01;;;;;;;20.80;6.80;;;8.60;79.40;;;;;;4784072;30;20035;-79
2021/10/24 08:31:52;;;;;;;21.42;7.03;;;8.60;79.50;;;;;;4746615;30;20037;-79
2021/10/24 08:34:19;;;;;;;24.33;7.97;;;8.70;79.90;;;;;;4772877;30;20151;-79
2021/10/24 08:36:46;;;;;;;20.10;7.00;;;8.90;80.20;;;;;;4749512;30;20119;-80
2021/10/24 08:39:12;;;;;;;19.90;7.78;;;9.10;77.60;;;;;;4731021;30;20301;-81
2021/10/24 08:41:39;;;;;;;18.98;7.20;;;9.10;77.70;;;;;;4746193;30;20331;-80
2021/10/24 08:44:06;;;;;;;23.50;7.93;;;9.20;77.50;;;;;;4772294;30;20139;-79
2021/10/24 08:46:33;;;;;;;23.90;8.02;;;9.40;77.60;;;;;;4754756;30;20060;-80
2021/10/24 08:49:00;;;;;;;15.88;6.97;;;9.50;77.10;;;;;;4746135;30;20041;-80
2021/10/24 08:51:29;;;;;;;24.08;7.25;;;9.70;77.30;;;;;;4743337;30;20036;-80
2021/10/24 08:53:59;;;;;;;17.77;6.90;;;9.90;76.00;;;;;;4762964;30;20040;-80
2021/10/24 08:56:28;;;;;;;20.23;6.70;;;10.00;75.50;;;;;;4733998;30;20092;-80
2021/10/24 08:58:54;;;;;;;21.10;6.75;;;10.20;74.70;;;;;;4759019;30;20207;-79
2021/10/24 09:01:20;;;;;;;20.52;7.15;;;10.20;74.60;;;;;;4744690;30;20043;-80
2021/10/24 09:04:13;;;;;;;20.10;7.07;;;10.40;74.60;;;;;;4747823;30;20051;-80
2021/10/24 09:06:55;;;;;;;17.65;7.97;;;10.50;74.70;;;;;;4723057;30;20359;-80
2021/10/24 09:09:35;;;;;;;19.05;6.97;;;10.70;73.90;;;;;;4767567;30;20407;-79
2021/10/24 09:12:05;;;;;;;18.90;7.90;;;10.80;72.70;;;;;;4769858;30;20059;-80
2021/10/24 09:14:39;;;;;;;21.27;7.43;;;10.80;72.00;;;;;;4771745;30;20028;-81
2021/10/24 09:17:06;;;;;;;30.23;8.48;;;10.80;72.30;;;;;;4776759;30;20071;-80
2021/10/24 09:19:40;;;;;;;22.15;8.43;;;10.90;73.40;;;;;;4772035;30;20032;-80
2021/10/24 09:22:31;;;;;;;17.65;7.10;;;11.10;72.20;;;;;;4775386;30;20053;-80
2021/10/24 09:25:07;;;;;;;19.23;6.93;;;11.20;71.20;;;;;;4769620;30;20104;-81
2021/10/24 09:27:39;;;;;;;18.67;6.25;;;11.40;71.50;;;;;;4765123;30;20102;-79
2021/10/24 09:30:21;;;;;;;19.95;6.97;;;11.60;71.20;;;;;;4772263;30;20039;-80
2021/10/24 09:33:11;;;;;;;16.27;6.97;;;11.70;70.70;;;;;;4772277;30;20050;-80
2021/10/24 09:35:46;;;;;;;20.50;6.78;;;11.70;70.00;;;;;;4772824;30;20032;-80
2021/10/24 09:38:25;;;;;;;15.27;7.30;;;11.90;70.80;;;;;;4769949;30;20043;-80
2021/10/24 09:41:30;;;;;;;29.42;8.15;;;12.00;70.80;;;;;;4782424;30;20062;-80
2021/10/24 09:44:15;;;;;;;17.80;6.18;;;12.20;70.30;;;;;;4761249;30;20039;-80
2021/10/24 09:46:57;;;;;;;21.45;7.68;;;12.50;68.50;;;;;;4774989;30;20047;-80
2021/10/24 09:49:24;;;;;;;20.52;6.60;;;12.50;68.60;;;;;;4760043;30;20068;-80
2021/10/24 09:51:51;;;;;;;22.02;7.93;;;12.60;67.70;;;;;;4758557;30;20212;-80
2021/10/24 09:54:27;;;;;;;17.88;7.47;;;12.60;68.20;;;;;;4759916;30;20038;-81
2021/10/24 09:56:53;;;;;;;21.90;7.40;;;12.60;68.10;;;;;;4726365;30;20054;-81
2021/10/24 09:59:21;;;;;;;21.20;7.27;;;12.60;67.90;;;;;;4758747;30;20047;-81
2021/10/24 10:01:52;;;;;;;15.63;6.35;;;12.80;67.90;;;;;;4759040;30;20062;-81
2021/10/24 10:04:18;;;;;;;19.42;6.53;;;13.00;66.40;;;;;;4743903;30;20050;-80
2021/10/24 10:06:44;;;;;;;17.55;5.65;;;13.00;65.90;;;;;;4756201;30;20191;-80
2021/10/24 10:09:12;;;;;;;18.63;6.20;;;13.10;66.50;;;;;;4765283;30;20093;-80
2021/10/24 10:11:49;;;;;;;22.13;6.20;;;13.30;66.20;;;;;;4747389;30;20343;-80
2021/10/24 10:14:21;;;;;;;18.52;6.10;;;13.30;65.20;;;;;;4740305;30;20038;-81
2021/10/24 10:17:04;;;;;;;15.82;6.47;;;13.40;64.70;;;;;;4760493;30;20404;-81
2021/10/24 10:19:35;;;;;;;16.95;6.80;;;13.50;64.50;;;;;;4777828;30;20111;-80
2021/10/24 10:22:21;;;;;;;22.17;7.35;;;13.60;64.80;;;;;;4778125;30;20328;-80
2021/10/24 10:25:08;;;;;;;14.25;5.18;;;13.80;64.50;;;;;;4778341;30;20372;-81
2021/10/24 10:27:34;;;;;;;13.13;5.25;;;13.80;63.50;;;;;;4770867;30;20036;-81
2021/10/24 10:30:06;;;;;;;16.17;6.17;;;13.80;63.70;;;;;;4777306;30;20100;-81
2021/10/24 10:32:36;;;;;;;12.38;4.55;;;13.90;63.80;;;;;;4776056;30;20044;-81
2021/10/24 10:35:07;;;;;;;12.55;4.50;;;13.90;64.00;;;;;;4799100;29;20092;-80
2021/10/24 10:37:50;;;;;;;19.90;5.30;;;14.10;63.60;;;;;;4777801;30;20036;-80
2021/10/24 10:40:22;;;;;;;18.52;5.13;;;14.20;62.90;;;;;;4762485;30;20346;-81
2021/10/24 10:42:51;;;;;;;17.67;5.30;;;14.30;62.80;;;;;;4775454;30;20036;-81
2021/10/24 10:45:26;;;;;;;14.43;3.97;;;14.40;62.50;;;;;;4775981;29;20102;-81
2021/10/24 10:47:53;;;;;;;9.68;2.72;;;14.40;61.50;;;;;;4777289;30;20039;-80
2021/10/24 10:50:40;;;;;;;11.00;3.20;;;14.60;59.30;;;;;;4776286;29;20043;-80
2021/10/24 10:53:07;;;;;;;;;;;14.60;58.90;;;;;;4762448;30;20042;-80
2021/10/24 10:56:03;;;;;;;6.43;2.63;;;14.60;59.10;;;;;;4776615;30;20020;-80
2021/10/24 10:58:43;;;;;;;12.82;3.53;;;14.60;58.90;;;;;;4726001;30;20048;-80
2021/10/24 11:01:19;;;;;;;17.90;3.47;;;14.50;59.20;;;;;;4729489;30;20119;-81
2021/10/24 11:03:47;;;;;;;13.75;3.20;;;14.60;59.90;;;;;;4730546;30;20107;-80
2021/10/24 11:06:28;;;;;;;10.20;3.03;;;14.70;59.70;;;;;;4742592;30;20033;-80
2021/10/24 11:09:02;;;;;;;11.50;2.25;;;14.80;58.20;;;;;;4741534;30;20350;-79
2021/10/24 11:11:37;;;;;;;11.52;2.70;;;14.80;58.00;;;;;;4727742;30;20067;-79
2021/10/24 11:14:15;;;;;;;11.70;2.85;;;14.90;58.00;;;;;;4717511;30;20040;-80
2021/10/24 11:16:46;;;;;;;9.52;2.72;;;15.00;56.90;;;;;;4726726;30;20296;-80
2021/10/24 11:19:32;;;;;;;8.43;2.20;;;15.00;56.60;;;;;;4755139;30;20040;-80
2021/10/24 11:22:17;;;;;;;7.32;2.33;;;15.00;54.20;;;;;;4754766;30;20176;-80
2021/10/24 11:24:53;;;;;;;14.55;2.47;;;14.90;53.60;;;;;;4723521;30;20350;-80
2021/10/24 11:27:21;;;;;;;10.27;3.33;;;14.80;54.10;;;;;;4727811;30;20038;-78
2021/10/24 11:30:01;;;;;;;10.60;2.60;;;14.90;52.30;;;;;;4743776;30;20419;-79
2021/10/24 11:32:34;;;;;;;5.95;2.58;;;14.90;52.30;;;;;;4727953;30;20051;-80
2021/10/24 11:35:02;;;;;;;11.20;2.70;;;15.00;52.40;;;;;;4752158;30;20043;-79
2021/10/24 11:37:45;;;;;;;12.25;2.22;;;15.00;52.20;;;;;;4775172;30;20040;-81
2021/10/24 11:40:16;;;;;;;11.35;5.78;;;15.00;52.20;;;;;;4777644;30;20034;-82
2021/10/24 11:42:59;;;;;;;9.32;1.88;;;15.00;51.60;;;;;;4772893;30;20263;-79
2021/10/24 11:45:28;;;;;;;6.72;2.15;;;15.10;51.90;;;;;;4774791;30;20043;-80
2021/10/24 11:47:58;;;;;;;5.05;1.63;;;15.20;52.20;;;;;;4777499;30;20047;-80
2021/10/24 11:50:46;;;;;;;10.55;2.95;;;15.20;51.00;;;;;;4777300;30;20340;-80
2021/10/24 11:53:17;;;;;;;9.20;1.83;;;15.00;51.40;;;;;;4773921;30;20094;-81
2021/10/24 11:55:43;;;;;;;9.38;2.63;;;15.00;51.90;;;;;;4776520;30;20055;-78
2021/10/24 12:00:49;;;;;;;9.82;2.42;;;14.90;52.40;;;;;;4772068;30;20032;-79
2021/10/24 12:03:32;;;;;;;10.15;2.60;;;14.90;52.50;;;;;;4776403;29;20081;-79
2021/10/24 12:05:59;;;;;;;8.77;2.10;;;14.90;52.80;;;;;;4775969;29;20549;-79
2021/10/24 12:08:41;;;;;;;14.20;2.92;;;15.00;53.30;;;;;;4762522;30;20240;-79
2021/10/24 12:11:11;;;;;;;7.57;2.20;;;15.10;52.80;;;;;;4773113;30;20070;-79
2021/10/24 12:13:37;;;;;;;7.20;2.08;;;15.20;52.70;;;;;;4772673;30;20047;-79
2021/10/24 12:16:23;;;;;;;8.77;1.80;;;15.20;52.10;;;;;;4764199;30;20043;-79
2021/10/24 12:18:50;;;;;;;10.63;2.42;;;15.00;53.10;;;;;;4775117;30;20040;-79
2021/10/24 12:21:25;;;;;;;6.32;1.90;;;15.00;53.10;;;;;;4775749;30;20031;-80
2021/10/24 12:23:50;;;;;;;8.27;2.63;;;15.00;52.70;;;;;;4783716;29;20100;-80
2021/10/24 12:26:16;;;;;;;10.90;2.42;;;14.80;53.20;;;;;;4770239;30;20027;-80
2021/10/24 12:28:43;;;;;;;10.77;4.43;;;14.80;53.30;;;;;;4767863;30;20027;-80
2021/10/24 12:31:18;;;;;;;;;;;14.90;53.80;;;;;;4776036;30;20039;-80
2021/10/24 12:33:46;;;;;;;7.43;2.70;;;14.90;53.70;;;;;;4787109;29;20117;-80
2021/10/24 12:36:32;;;;;;;14.43;2.92;;;14.90;53.00;;;;;;4775843;30;20063;-80
2021/10/24 12:39:00;;;;;;;14.68;3.45;;;14.80;53.90;;;;;;4767865;30;20111;-80
2021/10/24 12:41:44;;;;;;;10.52;2.42;;;14.80;53.80;;;;;;4777173;30;20043;-80
2021/10/24 12:44:17;;;;;;;9.45;3.20;;;14.80;53.60;;;;;;4773951;30;20143;-80
2021/10/24 12:46:43;;;;;;;11.55;3.85;;;14.80;53.80;;;;;;4778673;30;20331;-80
2021/10/24 12:49:19;;;;;;;11.80;2.50;;;14.80;53.70;;;;;;4780589;29;20039;-79
2021/10/24 12:51:48;;;;;;;9.45;2.67;;;14.90;54.30;;;;;;4767253;30;20043;-80
2021/10/24 12:54:27;;;;;;;11.15;2.58;;;14.70;53.90;;;;;;4774673;30;20030;-80
2021/10/24 12:56:52;;;;;;;11.23;2.60;;;14.70;54.30;;;;;;4779109;30;20316;-80
2021/10/24 12:59:18;;;;;;;8.32;2.75;;;14.70;54.70;;;;;;4776321;29;20047;-80
2021/10/24 13:01:51;;;;;;;7.82;2.75;;;14.60;54.40;;;;;;4774375;30;20020;-80
2021/10/24 13:04:18;;;;;;;7.85;2.60;;;14.60;55.10;;;;;;4776927;29;20023;-80
2021/10/24 13:06:44;;;;;;;12.33;2.63;;;14.70;55.00;;;;;;4773822;30;20320;-80
2021/10/24 13:09:10;;;;;;;9.23;2.40;;;14.70;54.50;;;;;;4775969;30;20066;-80
2021/10/24 13:11:36;;;;;;;8.82;2.67;;;14.70;54.60;;;;;;4777200;30;20047;-80
2021/10/24 13:14:02;;;;;;;9.57;2.78;;;14.70;54.90;;;;;;4776920;30;20028;-79
2021/10/24 13:16:28;;;;;;;10.60;2.87;;;14.60;54.80;;;;;;4760675;30;20051;-79
2021/10/24 13:18:54;;;;;;;16.77;3.20;;;14.60;54.70;;;;;;4775293;30;20042;-81
2021/10/24 13:24:12;;;;;;;10.48;2.65;;;14.50;54.60;;;;;;4772940;30;20131;-80
2021/10/24 13:26:44;;;;;;;16.75;2.78;;;14.40;55.20;;;;;;4759515;30;20044;-80
2021/10/24 13:29:11;;;;;;;8.13;2.60;;;14.40;55.40;;;;;;4772874;30;20335;-80
2021/10/24 13:31:37;;;;;;;8.35;2.22;;;14.50;55.50;;;;;;4762499;30;20102;-80
2021/10/24 13:34:04;;;;;;;9.27;2.78;;;14.50;55.40;;;;;;4747670;30;20043;-80
2021/10/24 13:36:30;;;;;;;8.85;2.45;;;14.50;54.90;;;;;;4762329;30;20276;-80
2021/10/24 13:38:57;;;;;;;7.40;2.50;;;14.50;55.10;;;;;;4748219;30;20366;-81
2021/10/24 13:41:23;;;;;;;6.53;2.33;;;14.50;54.70;;;;;;4750555;30;20048;-80
2021/10/24 13:43:48;;;;;;;9.07;3.00;;;14.50;55.10;;;;;;4746955;30;20239;-80
2021/10/24 13:46:16;;;;;;;13.52;3.88;;;14.50;55.00;;;;;;4745171;30;20179;-80
2021/10/24 13:48:42;;;;;;;9.23;2.63;;;14.40;54.90;;;;;;4760536;30;20060;-80
2021/10/24 13:51:08;;;;;;;7.50;2.40;;;14.40;55.50;;;;;;4740709;30;20109;-80
2021/10/24 13:53:34;;;;;;;10.25;2.60;;;14.50;55.50;;;;;;4755306;30;20386;-80
2021/10/24 13:56:00;;;;;;;16.50;2.65;;;14.40;55.20;;;;;;4758886;30;20059;-80
2021/10/24 13:58:26;;;;;;;11.23;2.70;;;14.50;55.70;;;;;;4761364;30;20031;-80
2021/10/24 14:00:53;;;;;;;8.57;3.23;;;14.40;55.20;;;;;;4762994;30;20044;-80
2021/10/24 14:03:19;;;;;;;13.90;3.42;;;14.40;55.20;;;;;;4777141;29;20320;-80
2021/10/24 14:05:45;;;;;;;8.53;2.63;;;14.40;55.60;;;;;;4775094;30;20059;-81
2021/10/24 14:08:12;;;;;;;8.63;3.13;;;14.30;55.60;;;;;;4774236;30;20050;-81
2021/10/24 14:10:38;;;;;;;10.52;2.70;;;14.30;55.90;;;;;;4772487;30;20044;-80
2021/10/24 14:13:04;;;;;;;9.10;2.45;;;14.30;55.70;;;;;;4775877;30;20031;-80
2021/10/24 14:15:30;;;;;;;10.27;2.33;;;14.30;55.80;;;;;;4775859;30;20088;-81
2021/10/24 14:17:57;;;;;;;8.65;2.25;;;14.30;55.70;;;;;;4777111;30;20054;-81
2021/10/24 14:20:25;;;;;;;7.55;2.25;;;14.30;56.00;;;;;;4779025;30;20331;-80
2021/10/24 14:22:51;;;;;;;6.10;2.63;;;14.30;55.60;;;;;;4772845;30;20363;-80
2021/10/24 14:25:17;;;;;;;9.57;2.80;;;14.30;56.50;;;;;;4773632;30;20314;-80
2021/10/24 14:27:44;;;;;;;9.38;3.53;;;14.30;55.90;;;;;;4779131;30;20051;-80
2021/10/24 14:30:11;;;;;;;8.98;2.75;;;14.20;56.20;;;;;;4767611;30;20043;-80
2021/10/24 14:32:37;;;;;;;7.93;2.88;;;14.20;56.20;;;;;;4771741;30;20115;-80
2021/10/24 14:35:07;;;;;;;9.77;3.15;;;14.20;56.00;;;;;;4778169;30;20042;-80
2021/10/24 14:37:33;;;;;;;11.85;3.08;;;14.20;56.20;;;;;;4777257;30;20046;-80
2021/10/24 14:39:59;;;;;;;15.93;2.63;;;14.10;56.10;;;;;;4781553;30;20133;-80
2021/10/24 14:42:25;;;;;;;6.05;2.88;;;14.10;56.10;;;;;;4756535;29;20278;-79
2021/10/24 14:44:51;;;;;;;8.35;2.85;;;14.00;56.40;;;;;;4772469;30;20065;-80
2021/10/24 14:47:17;;;;;;;9.50;2.67;;;14.00;56.30;;;;;;4775958;30;20342;-80
2021/10/24 14:49:43;;;;;;;9.27;2.45;;;14.00;56.00;;;;;;4760940;30;20050;-80
2021/10/24 14:52:09;;;;;;;7.57;2.13;;;13.90;56.30;;;;;;4778738;30;20074;-80
2021/10/24 14:54:36;;;;;;;12.52;3.60;;;13.80;56.80;;;;;;4769299;30;20028;-81
2021/10/24 14:57:03;;;;;;;14.57;3.42;;;13.80;57.10;;;;;;4763081;30;20070;-82
2021/10/24 14:59:29;;;;;;;11.18;3.83;;;13.80;57.30;;;;;;4775776;30;20041;-81
2021/10/24 15:01:55;;;;;;;10.75;2.22;;;13.80;57.50;;;;;;4772637;30;20059;-80
2021/10/24 15:04:20;;;;;;;6.35;2.50;;;13.70;57.20;;;;;;4757547;30;20300;-80
2021/10/24 15:06:46;;;;;;;11.45;2.60;;;13.70;57.50;;;;;;4770427;30;20453;-80
2021/10/24 15:09:13;;;;;;;11.40;3.03;;;13.60;57.80;;;;;;4769795;30;20062;-81
2021/10/24 15:11:43;;;;;;;7.60;2.67;;;13.60;58.20;;;;;;4769297;30;20220;-80
2021/10/24 15:14:09;;;;;;;16.20;5.38;;;13.50;58.40;;;;;;4760948;30;20058;-80
2021/10/24 15:17:04;;;;;;;8.52;2.97;;;13.50;58.40;;;;;;4781685;29;20419;-80
2021/10/24 15:21:53;;;;;;;14.98;6.00;;;13.40;58.80;;;;;;4775900;30;20051;-80
2021/10/24 15:24:19;;;;;;;8.45;2.50;;;13.30;58.80;;;;;;4775117;30;20048;-80
2021/10/24 15:26:45;;;;;;;9.13;2.53;;;13.30;59.10;;;;;;4788257;29;20100;-80
2021/10/24 15:29:11;;;;;;;8.50;2.65;;;13.30;59.20;;;;;;4762870;30;20036;-80
2021/10/24 15:31:37;;;;;;;7.05;2.72;;;13.20;59.30;;;;;;4773148;30;20075;-80
2021/10/24 15:34:05;;;;;;;8.13;2.88;;;13.10;59.50;;;;;;4790432;29;20041;-79
2021/10/24 15:36:31;;;;;;;11.85;2.65;;;13.10;59.90;;;;;;4771660;30;20035;-80
2021/10/24 15:38:58;;;;;;;9.57;2.90;;;13.00;60.20;;;;;;4776371;30;20035;-80
2021/10/24 15:41:24;;;;;;;8.68;2.28;;;12.90;60.40;;;;;;4782124;29;20034;-79
2021/10/24 15:43:53;;;;;;;4.22;2.47;;;12.90;60.90;;;;;;4794712;29;20058;-80
2021/10/24 15:46:20;;;;;;;8.82;2.42;;;12.80;61.30;;;;;;4791040;29;20430;-80
2021/10/24 15:48:46;;;;;;;;;;;12.70;61.70;;;;;;4790212;29;20043;-79
2021/10/24 15:51:13;;;;;;;8.85;2.60;;;12.60;61.80;;;;;;4791862;29;19937;-80
2021/10/24 15:53:41;;;;;;;7.25;2.95;;;12.50;62.40;;;;;;4779511;29;20074;-79